Time;durP1;ratioP1;P1;durP2;ratioP2;P2;SDS_P1;SDS_P2;PMS_P1;PMS_P2;Temp;Humidity;BMP_temperature;BMP_pressure;BME280_temperature;BME280_humidity;BME280_pressure;Samples;Min_cycle;Max_cycle;Signal;HPM_P1;HPM_P2
2022/08/16 00:02:25;;;;;;;;;;;;;;;;;;;;;
2022/08/16 00:04:51;;;;;;;21.02;12.75;;;;;;;17.70;100.00;96869.94;5055456;28;20045;-77
2022/08/16 00:07:16;;;;;;;21.25;13.18;;;;;;;18.00;100.00;96919.22;5111377;28;20119;-75
2022/08/16 00:09:42;;;;;;;20.98;12.60;;;;;;;17.95;100.00;96925.13;5074435;28;20037;-78
2022/08/16 00:12:07;;;;;;;21.83;11.85;;;;;;;17.96;100.00;96924.13;5022436;28;20566;-78
2022/08/16 00:14:33;;;;;;;23.10;12.20;;;;;;;17.92;100.00;96938.94;5012224;28;20090;-76
2022/08/16 00:16:59;;;;;;;20.05;11.63;;;;;;;17.92;100.00;96927.28;5012149;28;20033;-76
2022/08/16 00:19:32;;;;;;;26.58;9.43;;;;;;;17.85;100.00;96927.91;5028318;28;20049;-77
2022/08/16 00:21:58;;;;;;;22.08;11.70;;;;;;;17.79;100.00;96920.41;5028777;28;20029;-77
2022/08/16 00:24:25;;;;;;;21.50;12.70;;;;;;;17.81;100.00;96922.97;5047471;28;20033;-77
2022/08/16 00:26:51;;;;;;;17.52;11.60;;;;;;;17.76;100.00;96918.00;5048489;28;20021;-77
2022/08/16 00:29:17;;;;;;;20.20;11.98;;;;;;;17.73;100.00;96912.06;5048182;28;20419;-77
2022/08/16 00:31:47;;;;;;;19.58;11.68;;;;;;;17.77;100.00;96918.84;5031712;28;20028;-77
2022/08/16 00:34:13;;;;;;;19.50;12.13;;;;;;;17.74;100.00;96902.94;5048071;28;20032;-77
2022/08/16 00:36:39;;;;;;;20.15;11.77;;;;;;;17.69;100.00;96892.56;5043738;28;20022;-77
2022/08/16 00:39:05;;;;;;;20.25;12.38;;;;;;;17.69;100.00;96911.50;5044633;28;20021;-77
2022/08/16 00:41:31;;;;;;;23.80;11.73;;;;;;;17.71;100.00;96917.63;5027998;28;20022;-78
2022/08/16 00:43:59;;;;;;;18.63;12.38;;;;;;;17.65;100.00;96909.28;5035104;28;20599;-77
2022/08/16 00:46:35;;;;;;;24.95;12.35;;;;;;;17.69;100.00;96916.91;5037274;28;20032;-77
2022/08/16 00:49:04;;;;;;;24.55;13.38;;;;;;;17.62;100.00;96915.00;5028051;28;20081;-77
2022/08/16 00:51:29;;;;;;;19.30;11.23;;;;;;;17.70;100.00;96913.22;5011195;28;20089;-77
2022/08/16 00:53:56;;;;;;;21.58;12.25;;;;;;;17.70;100.00;96917.75;5011512;28;20025;-77
2022/08/16 00:56:27;;;;;;;16.17;12.13;;;;;;;17.71;100.00;96924.88;5011260;28;20026;-78
2022/08/16 00:58:53;;;;;;;18.45;12.27;;;;;;;17.74;100.00;96922.72;5027933;28;20109;-77
2022/08/16 01:01:19;;;;;;;19.35;12.38;;;;;;;17.78;100.00;96923.28;5008993;28;20112;-77
2022/08/16 01:03:49;;;;;;;25.95;13.13;;;;;;;17.75;100.00;96916.28;5027879;28;20459;-77
2022/08/16 01:06:17;;;;;;;21.80;13.20;;;;;;;17.82;100.00;96928.22;5010963;28;20046;-77
2022/08/16 01:08:45;;;;;;;20.88;12.90;;;;;;;17.81;100.00;96922.97;5027962;28;20446;-77
2022/08/16 01:11:10;;;;;;;15.57;12.00;;;;;;;17.78;100.00;96925.97;5027436;28;20100;-77
2022/08/16 01:13:37;;;;;;;19.20;12.88;;;;;;;17.80;100.00;96932.94;5011082;28;20576;-77
2022/08/16 01:16:22;;;;;;;21.98;11.85;;;;;;;17.74;100.00;96917.31;5027511;28;20473;-77
2022/08/16 01:19:17;;;;;;;23.83;11.75;;;;;;;17.80;100.00;96927.53;5032266;28;20040;-77
2022/08/16 01:22:02;;;;;;;17.63;12.63;;;;;;;17.73;100.00;96934.53;5031458;28;20424;-77
2022/08/16 01:24:35;;;;;;;20.63;12.25;;;;;;;17.76;100.00;96936.09;5027516;28;20037;-77
2022/08/16 01:27:23;;;;;;;;;;;;;;;17.76;100.00;96938.78;5044999;28;20033;-77
2022/08/16 01:29:54;;;;;;;17.85;12.02;;;;;;;17.64;100.00;96935.47;5047252;28;19917;-77
2022/08/16 01:32:19;;;;;;;23.25;11.63;;;;;;;17.53;100.00;96938.38;5030597;28;20029;-77
2022/08/16 01:34:45;;;;;;;21.25;13.02;;;;;;;17.45;100.00;96943.69;5024140;28;20445;-76
2022/08/16 01:37:11;;;;;;;21.80;12.68;;;;;;;17.55;100.00;96946.34;5027229;28;20033;-77
2022/08/16 01:39:37;;;;;;;24.42;12.63;;;;;;;17.53;100.00;96951.03;5027132;28;20041;-76
2022/08/16 01:42:06;;;;;;;18.92;12.40;;;;;;;17.52;100.00;96942.06;5019334;28;20029;-76
2022/08/16 01:44:32;;;;;;;27.08;13.05;;;;;;;17.62;100.00;96959.13;5033245;28;20442;-77
2022/08/16 01:46:58;;;;;;;18.02;12.00;;;;;;;17.54;100.00;96956.28;5030592;28;20035;-77
2022/08/16 01:49:32;;;;;;;26.65;13.20;;;;;;;17.57;100.00;96963.28;5046722;28;20025;-77
2022/08/16 01:52:11;;;;;;;21.58;13.13;;;;;;;17.51;100.00;96962.00;5047015;28;20029;-76
2022/08/16 01:54:37;;;;;;;20.23;13.20;;;;;;;17.51;100.00;96972.81;5030370;28;20032;-76
2022/08/16 01:57:03;;;;;;;18.73;12.25;;;;;;;17.52;100.00;96979.06;5022339;28;20025;-76
2022/08/16 01:59:30;;;;;;;21.98;13.00;;;;;;;17.46;100.00;96975.13;5026744;28;20033;-77
2022/08/16 02:01:56;;;;;;;17.13;12.50;;;;;;;17.41;100.00;96977.41;5026940;28;20488;-76
2022/08/16 02:04:22;;;;;;;21.30;13.25;;;;;;;17.42;100.00;96989.09;5037475;28;20523;-76
2022/08/16 02:06:48;;;;;;;20.20;12.60;;;;;;;17.33;100.00;96971.94;5046495;28;20084;-77
2022/08/16 02:09:15;;;;;;;21.10;12.63;;;;;;;17.36;100.00;96977.03;5015278;28;20029;-78
2022/08/16 02:11:44;;;;;;;20.08;12.32;;;;;;;17.27;100.00;96988.75;5046594;28;20025;-77
2022/08/16 02:14:10;;;;;;;22.70;12.63;;;;;;;17.23;100.00;96963.00;5046849;28;20472;-76
2022/08/16 02:16:36;;;;;;;25.75;12.23;;;;;;;17.21;100.00;96981.25;5046379;28;20033;-76
2022/08/16 02:19:02;;;;;;;20.05;11.68;;;;;;;17.17;100.00;96974.41;5046610;28;20041;-77
2022/08/16 02:21:28;;;;;;;21.58;12.48;;;;;;;17.15;100.00;96979.13;5046385;28;20117;-78
2022/08/16 02:23:54;;;;;;;19.42;12.52;;;;;;;17.19;100.00;96989.50;5046611;28;20029;-77
2022/08/16 02:26:20;;;;;;;20.40;12.10;;;;;;;17.06;100.00;96956.56;5051037;28;20060;-77
2022/08/16 02:28:46;;;;;;;20.25;11.88;;;;;;;17.18;100.00;96968.03;5042473;28;20129;-76
2022/08/16 02:31:13;;;;;;;21.80;11.98;;;;;;;17.15;100.00;96965.63;5033414;28;20018;-77
2022/08/16 02:33:40;;;;;;;19.33;11.98;;;;;;;17.17;100.00;96969.00;5017655;28;20117;-77
2022/08/16 02:36:06;;;;;;;20.92;12.07;;;;;;;17.20;100.00;96968.72;5031612;28;20021;-77
2022/08/16 02:38:33;;;;;;;17.23;11.85;;;;;;;17.18;100.00;96965.31;5041517;28;20115;-78
2022/08/16 02:41:00;;;;;;;18.35;12.23;;;;;;;17.12;100.00;96968.63;5048752;28;20101;-77
2022/08/16 02:43:29;;;;;;;18.52;12.70;;;;;;;17.08;100.00;96969.91;5016591;28;20041;-77
2022/08/16 02:45:55;;;;;;;28.92;11.23;;;;;;;17.19;100.00;96985.97;5032959;28;20396;-77
2022/08/16 02:48:21;;;;;;;30.85;9.95;;;;;;;17.13;100.00;96981.16;5047805;28;20456;-77
2022/08/16 02:50:47;;;;;;;17.77;9.38;;;;;;;17.10;100.00;96981.44;5036333;28;20033;-77
2022/08/16 02:53:13;;;;;;;15.20;9.27;;;;;;;17.10;100.00;96979.56;5036456;28;20542;-77
2022/08/16 02:55:39;;;;;;;22.88;9.35;;;;;;;17.11;100.00;96986.69;5036043;28;20039;-76
2022/08/16 02:58:04;;;;;;;29.48;7.68;;;;;;;17.14;100.00;97002.59;5052814;27;20040;-77
2022/08/16 03:00:30;;;;;;;11.77;6.13;;;;;;;17.15;100.00;97000.75;5036128;28;20030;-76
2022/08/16 03:02:56;;;;;;;15.48;6.22;;;;;;;17.17;100.00;96996.91;5052419;28;20033;-76
2022/08/16 03:05:23;;;;;;;18.23;4.97;;;;;;;17.16;100.00;96988.97;5036189;28;20059;-78
2022/08/16 03:07:49;;;;;;;8.20;4.07;;;;;;;17.13;100.00;96984.72;5017799;28;20025;-77
2022/08/16 03:10:15;;;;;;;10.15;4.28;;;;;;;17.14;100.00;96990.94;5032781;28;20372;-78
2022/08/16 03:12:42;;;;;;;8.70;5.57;;;;;;;17.24;100.00;96995.31;5016008;28;20029;-77
2022/08/16 03:15:10;;;;;;;11.20;4.70;;;;;;;17.17;100.00;96979.81;5016432;28;20026;-77
2022/08/16 03:17:37;;;;;;;9.00;4.50;;;;;;;17.20;100.00;96987.63;5016224;28;20703;-77
2022/08/16 03:20:07;;;;;;;5.90;3.97;;;;;;;17.17;100.00;96985.22;5015820;28;20033;-78
2022/08/16 03:22:33;;;;;;;9.73;4.90;;;;;;;17.16;100.00;96984.41;5015887;28;20094;-77
2022/08/16 03:25:00;;;;;;;13.00;4.70;;;;;;;17.16;100.00;96981.72;5024058;28;20476;-78
2022/08/16 03:27:26;;;;;;;9.57;4.07;;;;;;;17.21;100.00;96987.50;5047016;28;20060;-78
2022/08/16 03:29:52;;;;;;;7.05;3.65;;;;;;;17.21;100.00;96982.09;5025810;28;20133;-78
2022/08/16 03:32:18;;;;;;;8.02;4.65;;;;;;;17.31;100.00;96982.06;5032489;28;20061;-76
2022/08/16 03:34:45;;;;;;;8.02;4.55;;;;;;;17.29;100.00;96965.09;5024413;28;20486;-76
2022/08/16 03:37:11;;;;;;;9.77;4.70;;;;;;;17.41;100.00;96971.19;5021865;28;20030;-78
2022/08/16 03:39:38;;;;;;;10.20;5.15;;;;;;;17.48;100.00;96967.72;5019901;28;20563;-77
2022/08/16 03:42:04;;;;;;;9.65;4.88;;;;;;;17.61;100.00;96979.06;5048776;28;20032;-78
2022/08/16 03:44:31;;;;;;;6.35;3.63;;;;;;;17.66;100.00;96965.91;5049002;28;20031;-78
2022/08/16 03:46:57;;;;;;;28.95;4.43;;;;;;;17.80;100.00;96973.53;5032257;28;20484;-77
2022/08/16 03:49:23;;;;;;;10.25;5.03;;;;;;;17.78;100.00;96964.69;5040551;28;20037;-78
2022/08/16 03:51:49;;;;;;;9.85;4.63;;;;;;;17.99;100.00;96982.50;5032082;28;20073;-77
2022/08/16 03:54:14;;;;;;;9.90;4.90;;;;;;;18.08;100.00;96966.19;5028621;28;20025;-78
2022/08/16 03:56:40;;;;;;;13.43;6.38;;;;;;;18.04;100.00;96964.78;5012438;28;20062;-78
2022/08/16 03:59:06;;;;;;;18.33;6.57;;;;;;;18.12;100.00;96964.84;5030947;28;20040;-78
2022/08/16 04:01:32;;;;;;;11.10;5.95;;;;;;;18.29;100.00;96972.09;5048628;28;20025;-76
2022/08/16 04:03:57;;;;;;;11.75;5.40;;;;;;;18.38;100.00;96979.28;5039324;28;20036;-77
2022/08/16 04:06:23;;;;;;;11.07;5.72;;;;;;;18.45;100.00;96982.22;5012146;28;20423;-78
2022/08/16 04:08:49;;;;;;;10.52;5.22;;;;;;;18.56;100.00;96976.56;5012376;28;20049;-78
2022/08/16 04:11:14;;;;;;;11.60;5.65;;;;;;;18.74;100.00;96974.66;5012165;28;20058;-77
2022/08/16 04:13:40;;;;;;;8.35;4.32;;;;;;;19.15;100.00;96964.06;5029715;28;20424;-77
2022/08/16 04:16:06;;;;;;;8.55;4.20;;;;;;;19.44;100.00;96961.84;5028431;28;20487;-76
2022/08/16 04:18:35;;;;;;;6.70;3.90;;;;;;;19.17;100.00;96953.88;5011959;28;20426;-76
2022/08/16 04:21:01;;;;;;;7.45;4.43;;;;;;;19.07;100.00;96947.75;5025612;28;20028;-82
2022/08/16 04:23:26;;;;;;;8.40;4.45;;;;;;;19.05;100.00;96964.16;5044330;28;20025;-79
2022/08/16 04:25:52;;;;;;;6.07;4.47;;;;;;;18.94;100.00;96954.47;5021062;28;20499;-84
2022/08/16 04:28:17;;;;;;;7.40;4.78;;;;;;;19.06;100.00;96963.16;5020781;28;20404;-83
2022/08/16 04:30:43;;;;;;;7.25;4.32;;;;;;;19.08;100.00;96957.56;5019591;28;20025;-84
2022/08/16 04:33:09;;;;;;;8.18;4.55;;;;;;;19.02;100.00;96939.25;5040274;28;20033;-83
2022/08/16 04:35:35;;;;;;;13.07;5.53;;;;;;;18.95;100.00;96939.03;5047640;28;20032;-82
2022/08/16 04:38:01;;;;;;;16.55;5.07;;;;;;;19.04;100.00;96948.91;5032002;28;20051;-85
2022/08/16 04:40:27;;;;;;;11.15;4.93;;;;;;;19.07;100.00;96945.06;5043262;28;20030;-77
2022/08/16 04:42:55;;;;;;;8.30;4.85;;;;;;;19.06;100.00;96941.47;5019746;28;20551;-77
2022/08/16 04:45:21;;;;;;;20.00;5.80;;;;;;;19.11;100.00;96957.25;5014266;28;20044;-78
2022/08/16 04:47:46;;;;;;;9.18;4.40;;;;;;;18.99;100.00;96951.25;5021602;28;20045;-77
2022/08/16 04:50:18;;;;;;;8.60;4.60;;;;;;;19.08;100.00;96957.56;5018879;28;20174;-78
2022/08/16 04:52:45;;;;;;;7.90;4.43;;;;;;;19.14;100.00;96940.66;5028044;28;20082;-77
2022/08/16 04:55:20;;;;;;;8.60;4.70;;;;;;;19.40;100.00;96955.91;5011158;28;20037;-77
2022/08/16 04:57:47;;;;;;;12.23;4.43;;;;;;;19.56;100.00;96952.41;5030087;28;20178;-77
2022/08/16 05:00:17;;;;;;;8.18;4.75;;;;;;;19.72;100.00;96949.69;5020820;28;20115;-78
2022/08/16 05:02:42;;;;;;;8.77;4.32;;;;;;;19.74;100.00;96942.25;5040838;28;20024;-78
2022/08/16 05:05:09;;;;;;;7.63;4.72;;;;;;;19.96;100.00;96963.31;5030388;28;20029;-77
2022/08/16 05:07:36;;;;;;;10.95;4.75;;;;;;;19.94;100.00;96926.50;5033267;28;20069;-77
2022/08/16 05:10:07;;;;;;;9.55;5.30;;;;;;;20.09;100.00;96937.56;5015068;28;20044;-79
2022/08/16 05:12:33;;;;;;;7.60;4.40;;;;;;;20.02;100.00;96932.81;5023594;28;20029;-78
2022/08/16 05:14:59;;;;;;;10.48;4.82;;;;;;;20.17;100.00;96938.41;5015995;28;20033;-77
2022/08/16 05:17:24;;;;;;;10.48;4.88;;;;;;;20.33;100.00;96937.59;5027553;28;20033;-78
2022/08/16 05:19:50;;;;;;;9.23;4.55;;;;;;;20.38;100.00;96937.91;5016878;28;20025;-78
2022/08/16 05:22:16;;;;;;;16.17;5.50;;;;;;;20.33;100.00;96932.97;5039297;28;20119;-77
2022/08/16 05:24:42;;;;;;;8.23;5.00;;;;;;;20.37;100.00;96949.78;5047413;28;20054;-77
2022/08/16 05:27:08;;;;;;;13.02;4.70;;;;;;;20.56;100.00;96944.00;5022614;28;20101;-79
2022/08/16 05:29:34;;;;;;;9.63;4.88;;;;;;;20.90;100.00;96941.91;5027463;28;20029;-76
2022/08/16 05:32:00;;;;;;;10.07;4.18;;;;;;;21.14;100.00;96953.75;5036766;28;20088;-78
2022/08/16 05:34:26;;;;;;;10.07;5.07;;;;;;;21.04;100.00;96949.34;5020893;28;20037;-78
2022/08/16 05:36:56;;;;;;;6.95;4.25;;;;;;;21.31;100.00;96960.88;5013778;28;20037;-78
2022/08/16 05:39:47;;;;;;;13.55;5.53;;;;;;;21.22;100.00;96957.34;5033782;28;20042;-80
2022/08/16 05:42:12;;;;;;;6.70;4.28;;;;;;;21.33;100.00;96947.91;5032014;28;20029;-79
2022/08/16 05:44:38;;;;;;;12.73;5.38;;;;;;;21.97;100.00;96947.59;5040917;28;20032;-79
2022/08/16 05:47:04;;;;;;;7.53;4.57;;;;;;;23.33;97.42;96981.16;5047323;28;20021;-78
2022/08/16 05:49:30;;;;;;;9.75;5.10;;;;;;;25.10;85.36;96984.03;5021690;28;20095;-82
2022/08/16 05:51:58;;;;;;;8.77;4.53;;;;;;;25.54;80.77;97000.16;5032974;28;20032;-78
2022/08/16 05:54:24;;;;;;;8.68;5.03;;;;;;;24.58;83.55;96998.09;5022803;28;20029;-77
2022/08/16 05:56:50;;;;;;;14.70;4.85;;;;;;;24.24;84.52;96985.13;5047106;28;20550;-78
2022/08/16 05:59:16;;;;;;;6.60;4.63;;;;;;;23.87;86.73;96979.81;5017201;28;20025;-76
2022/08/16 06:01:49;;;;;;;7.97;4.93;;;;;;;24.75;84.91;96985.00;5008552;28;20029;-78
2022/08/16 06:04:15;;;;;;;7.93;3.83;;;;;;;26.58;75.07;96963.22;5042350;28;20081;-79
2022/08/16 06:06:42;;;;;;;6.35;3.88;;;;;;;28.12;67.89;96959.84;5033902;28;20518;-79
2022/08/16 06:09:08;;;;;;;9.85;4.60;;;;;;;28.86;64.86;96961.94;5015984;28;20457;-78
2022/08/16 06:11:33;;;;;;;6.35;4.13;;;;;;;28.50;64.40;96957.97;5042234;28;20025;-78
2022/08/16 06:13:59;;;;;;;9.15;4.60;;;;;;;28.99;64.10;96956.34;5028421;28;20424;-78
2022/08/16 06:16:24;;;;;;;6.38;4.03;;;;;;;30.23;59.75;96940.38;5026958;28;20021;-78
2022/08/16 06:18:50;;;;;;;5.75;3.40;;;;;;;30.90;56.32;96925.34;5034800;28;20428;-79
2022/08/16 06:21:16;;;;;;;7.20;4.50;;;;;;;31.49;54.93;96937.34;5041506;28;20112;-79
2022/08/16 06:23:42;;;;;;;7.15;3.97;;;;;;;33.25;49.37;96915.91;5040374;28;20028;-80
2022/08/16 06:26:08;;;;;;;5.70;3.40;;;;;;;35.19;44.79;96920.84;5022301;28;20021;-80
2022/08/16 06:28:33;;;;;;;3.85;2.97;;;;;;;36.21;41.38;96909.25;5028171;28;20034;-79
2022/08/16 06:31:02;;;;;;;4.95;3.13;;;;;;;36.17;38.88;96895.03;5034851;28;20105;-81
2022/08/16 06:33:28;;;;;;;7.13;4.50;;;;;;;37.37;38.64;96901.06;5033404;28;20502;-79
2022/08/16 06:35:55;;;;;;;18.38;5.40;;;;;;;36.59;40.70;96924.69;5038823;28;20021;-79
2022/08/16 06:38:23;;;;;;;6.43;4.57;;;;;;;37.15;40.16;96911.69;5031948;28;20460;-79
2022/08/16 06:40:49;;;;;;;5.90;4.32;;;;;;;36.95;39.45;96913.31;5037725;28;20469;-78
2022/08/16 06:43:15;;;;;;;8.88;3.88;;;;;;;37.79;37.90;96909.94;5046574;28;20053;-80
2022/08/16 06:45:42;;;;;;;6.85;4.35;;;;;;;38.47;37.17;96908.31;5035151;28;20085;-78
2022/08/16 06:48:08;;;;;;;12.50;5.35;;;;;;;39.30;36.58;96899.09;5033677;28;20437;-80
2022/08/16 06:50:34;;;;;;;12.48;6.07;;;;;;;39.59;35.98;96894.34;5018858;28;20028;-79
2022/08/16 06:53:00;;;;;;;45.13;6.25;;;;;;;39.21;36.76;96900.81;5021181;28;20111;-78
2022/08/16 06:55:26;;;;;;;3.35;2.38;;;;;;;38.60;31.81;96867.69;5021875;28;20025;-78
2022/08/16 06:57:52;;;;;;;4.55;2.33;;;;;;;38.85;30.98;96861.13;5036012;28;20021;-79
2022/08/16 07:00:22;;;;;;;5.95;2.95;;;;;;;39.98;30.10;96855.81;5039288;28;20021;-79
2022/08/16 07:02:48;;;;;;;3.80;2.10;;;;;;;40.96;28.69;96855.03;5043593;28;20037;-80
2022/08/16 07:05:15;;;;;;;2.85;2.28;;;;;;;41.13;28.12;96859.25;5040039;28;20041;-78
2022/08/16 07:07:43;;;;;;;2.63;2.10;;;;;;;41.26;28.42;96853.66;5009548;28;20113;-79
2022/08/16 07:10:09;;;;;;;2.40;2.08;;;;;;;40.61;27.77;96849.13;5017750;28;20021;-80
2022/08/16 07:12:35;;;;;;;3.22;1.88;;;;;;;40.78;27.75;96841.81;5018707;28;20033;-79
2022/08/16 07:15:02;;;;;;;4.43;2.53;;;;;;;41.14;27.13;96844.88;5029561;28;20029;-79
2022/08/16 07:17:28;;;;;;;2.95;2.30;;;;;;;40.91;27.12;96838.25;5032557;28;20022;-79
2022/08/16 07:19:54;;;;;;;2.17;1.95;;;;;;;40.88;27.01;96836.03;5034766;28;20059;-79
2022/08/16 07:22:20;;;;;;;3.65;2.30;;;;;;;41.47;26.59;96831.69;5041409;28;20029;-79
2022/08/16 07:24:46;;;;;;;2.95;2.20;;;;;;;41.52;25.45;96834.41;5032680;28;20033;-78
2022/08/16 07:27:12;;;;;;;2.47;1.90;;;;;;;41.37;25.78;96835.53;5039658;28;20104;-78
2022/08/16 07:29:38;;;;;;;2.30;1.80;;;;;;;39.96;26.61;96815.22;5046373;28;20041;-78
2022/08/16 07:32:05;;;;;;;6.53;2.08;;;;;;;41.23;26.21;96833.78;5048904;28;20064;-79
2022/08/16 07:34:31;;;;;;;2.40;1.98;;;;;;;41.54;25.55;96834.91;5034467;28;20025;-79
2022/08/16 07:36:58;;;;;;;2.72;2.25;;;;;;;41.56;25.41;96833.44;5012783;28;20623;-79
2022/08/16 07:39:24;;;;;;;3.58;1.98;;;;;;;41.73;25.12;96832.00;5029115;28;20426;-79
2022/08/16 07:41:49;;;;;;;4.55;2.20;;;;;;;41.49;25.82;96830.22;5031859;28;20074;-79
2022/08/16 07:44:15;;;;;;;2.53;1.92;;;;;;;41.76;25.52;96820.16;5040612;28;20057;-79
2022/08/16 07:46:40;;;;;;;3.33;2.08;;;;;;;42.63;24.29;96815.19;5065486;28;20029;-79
2022/08/16 07:49:06;;;;;;;2.70;2.28;;;;;;;42.70;23.98;96821.22;5043155;28;20059;-79
2022/08/16 07:51:33;;;;;;;2.72;2.25;;;;;;;43.13;23.75;96828.03;5017003;28;20417;-79
2022/08/16 07:54:01;;;;;;;2.67;2.13;;;;;;;42.65;24.08;96821.34;5020589;28;20058;-78
2022/08/16 07:56:28;;;;;;;2.92;1.77;;;;;;;42.58;23.80;96821.78;5037818;28;20029;-79
2022/08/16 07:58:54;;;;;;;2.47;2.00;;;;;;;42.84;23.58;96826.78;5033229;28;20040;-80
2022/08/16 08:01:21;;;;;;;1.80;1.40;;;;;;;42.41;23.68;96829.19;5028610;28;20097;-78
2022/08/16 08:03:48;;;;;;;3.05;2.00;;;;;;;42.52;23.79;96816.53;5027015;28;20065;-79
2022/08/16 08:06:13;;;;;;;2.40;1.88;;;;;;;42.06;24.18;96834.44;5028981;28;20139;-78
2022/08/16 08:08:39;;;;;;;1.95;1.75;;;;;;;42.07;24.05;96822.03;5027161;28;20117;-79
2022/08/16 08:11:05;;;;;;;2.60;1.98;;;;;;;42.53;22.81;96819.06;5028443;28;20029;-79
2022/08/16 08:13:31;;;;;;;2.47;1.98;;;;;;;42.99;22.30;96823.63;5030476;28;20052;-78
2022/08/16 08:15:56;;;;;;;1.88;1.70;;;;;;;43.13;23.16;96833.66;5044274;28;20435;-78
2022/08/16 08:18:22;;;;;;;2.70;1.92;;;;;;;43.36;22.34;96822.38;5048198;28;20040;-79
2022/08/16 08:20:47;;;;;;;1.98;1.70;;;;;;;43.38;22.56;96814.47;5031664;28;20025;-79
2022/08/16 08:23:13;;;;;;;3.78;1.90;;;;;;;44.11;21.84;96828.72;5031236;28;20190;-79
2022/08/16 08:25:41;;;;;;;2.13;1.73;;;;;;;44.89;20.65;96820.38;5020356;28;20032;-79
2022/08/16 08:28:08;;;;;;;2.78;1.70;;;;;;;44.10;20.92;96824.25;5022481;28;20508;-78
2022/08/16 08:30:33;;;;;;;1.77;1.50;;;;;;;44.06;21.77;96820.41;5019092;28;20022;-78
2022/08/16 08:32:59;;;;;;;2.58;1.60;;;;;;;43.99;20.87;96822.91;5017822;28;20029;-78
2022/08/16 08:35:25;;;;;;;1.70;1.60;;;;;;;44.06;20.76;96820.41;5037008;28;20033;-78
2022/08/16 08:37:50;;;;;;;1.80;1.48;;;;;;;44.12;20.92;96816.28;5031338;28;20032;-78
2022/08/16 08:40:17;;;;;;;4.82;2.03;;;;;;;44.11;20.85;96816.63;5023311;28;20377;-79
2022/08/16 08:42:44;;;;;;;2.28;1.90;;;;;;;44.41;20.58;96821.34;5036528;28;20401;-78
2022/08/16 08:45:12;;;;;;;1.60;1.50;;;;;;;44.78;19.92;96817.09;5040558;28;20025;-78
2022/08/16 08:47:37;;;;;;;2.47;1.85;;;;;;;44.04;19.76;96810.63;5042231;28;20025;-78
2022/08/16 08:50:05;;;;;;;1.50;1.30;;;;;;;42.87;20.15;96804.47;5047618;28;20341;-77
2022/08/16 08:52:31;;;;;;;1.42;1.25;;;;;;;44.36;19.19;96806.56;5030920;28;20032;-79
2022/08/16 08:54:57;;;;;;;2.47;2.03;;;;;;;45.44;18.79;96817.72;5047687;28;20033;-78
2022/08/16 08:57:23;;;;;;;2.13;1.88;;;;;;;45.53;19.38;96815.69;5047592;28;20033;-78
2022/08/16 08:59:49;;;;;;;2.15;1.83;;;;;;;44.08;19.75;96815.28;5026735;28;20062;-78
2022/08/16 09:02:15;;;;;;;2.08;1.88;;;;;;;42.22;21.25;96806.00;5031152;28;20073;-78
2022/08/16 09:04:43;;;;;;;1.92;1.67;;;;;;;43.71;20.76;96805.34;5030845;28;20127;-78
2022/08/16 09:07:09;;;;;;;3.33;2.13;;;;;;;45.58;19.93;96815.50;5047178;28;20049;-78
2022/08/16 09:09:35;;;;;;;2.33;2.10;;;;;;;43.97;20.99;96807.44;5047283;28;20039;-79
2022/08/16 09:12:01;;;;;;;8.48;2.72;;;;;;;45.16;20.16;96808.78;5016931;28;20468;-78
2022/08/16 09:14:28;;;;;;;2.60;2.10;;;;;;;45.74;19.43;96814.66;5042188;28;20404;-78
2022/08/16 09:16:54;;;;;;;2.13;1.70;;;;;;;46.23;19.13;96810.25;5017143;28;20029;-79
2022/08/16 09:19:21;;;;;;;2.90;2.00;;;;;;;45.37;19.24;96794.78;5018430;28;20131;-79
2022/08/16 09:21:48;;;;;;;2.38;2.00;;;;;;;45.88;19.49;96810.72;5019217;28;20492;-79
2022/08/16 09:24:15;;;;;;;1.55;1.45;;;;;;;46.54;18.89;96809.91;5030422;28;20035;-79
2022/08/16 09:26:40;;;;;;;2.67;2.15;;;;;;;46.49;18.96;96803.59;5030619;28;20024;-79
2022/08/16 09:29:06;;;;;;;2.60;2.00;;;;;;;45.41;19.48;96798.59;5044909;28;20077;-79
2022/08/16 09:31:32;;;;;;;2.03;1.83;;;;;;;44.95;19.57;96797.31;5032774;28;20025;-79
2022/08/16 09:33:57;;;;;;;2.55;1.70;;;;;;;44.12;20.58;96793.69;5013546;28;20037;-78
2022/08/16 09:36:23;;;;;;;2.00;1.80;;;;;;;44.70;20.22;96806.63;5030112;28;20029;-78
2022/08/16 09:38:49;;;;;;;1.77;1.58;;;;;;;44.68;19.72;96798.47;5030634;28;20017;-79
2022/08/16 09:41:16;;;;;;;2.28;1.75;;;;;;;45.25;19.34;96795.44;5053566;27;20017;-79
2022/08/16 09:43:42;;;;;;;2.05;1.80;;;;;;;46.15;19.08;96796.97;5016215;28;20134;-79
2022/08/16 09:46:08;;;;;;;2.65;2.13;;;;;;;46.48;18.86;96799.97;5030301;28;20028;-79
2022/08/16 09:48:35;;;;;;;1.70;1.60;;;;;;;46.15;18.88;96802.63;5030280;28;20032;-79
2022/08/16 09:51:00;;;;;;;3.13;1.70;;;;;;;46.90;18.17;96802.78;5046868;28;20033;-79
2022/08/16 09:53:28;;;;;;;3.22;1.70;;;;;;;46.97;18.61;96798.22;5038467;28;20039;-79
2022/08/16 09:55:56;;;;;;;1.70;1.60;;;;;;;46.24;18.74;96794.91;5040441;28;20025;-79
2022/08/16 09:58:24;;;;;;;2.03;1.80;;;;;;;46.00;19.03;96800.34;5021612;28;20173;-79
2022/08/16 10:00:51;;;;;;;2.47;1.77;;;;;;;45.56;18.70;96789.56;5030230;28;20100;-78
2022/08/16 10:03:17;;;;;;;1.98;1.73;;;;;;;44.43;20.30;96784.31;5046467;28;20377;-78
2022/08/16 10:05:44;;;;;;;2.33;2.00;;;;;;;44.20;20.38;96776.00;5046627;28;20110;-78
2022/08/16 10:08:10;;;;;;;2.28;1.83;;;;;;;44.52;19.69;96773.84;5039619;28;20077;-78
2022/08/16 10:10:40;;;;;;;2.08;1.70;;;;;;;45.34;19.14;96767.19;5023346;28;20037;-78
2022/08/16 10:13:11;;;;;;;1.63;1.52;;;;;;;44.73;20.22;96777.72;5046611;28;20494;-81
2022/08/16 10:15:43;;;;;;;2.20;1.90;;;;;;;44.06;20.28;96775.28;5042863;28;20033;-79
2022/08/16 10:18:11;;;;;;;2.10;1.90;;;;;;;45.32;19.47;96775.19;5036236;27;20113;-78
2022/08/16 10:20:43;;;;;;;2.25;2.05;;;;;;;46.01;20.21;96773.72;5026160;28;20492;-79
2022/08/16 10:23:12;;;;;;;2.50;2.30;;;;;;;46.50;19.09;96771.28;5026685;28;20025;-79
2022/08/16 10:25:40;;;;;;;2.20;2.00;;;;;;;45.58;20.05;96781.56;5026392;28;20025;-79
2022/08/16 10:28:06;;;;;;;2.90;2.10;;;;;;;44.84;20.61;96783.84;5010044;28;20407;-78
2022/08/16 10:30:31;;;;;;;1.77;1.67;;;;;;;42.24;22.09;96765.16;5028488;28;20442;-78
2022/08/16 10:32:57;;;;;;;2.00;1.80;;;;;;;41.49;23.19;96778.81;5046420;28;20089;-78
2022/08/16 10:35:23;;;;;;;2.30;2.10;;;;;;;39.99;24.83;96773.38;5045948;28;20029;-80
2022/08/16 10:37:50;;;;;;;2.60;2.15;;;;;;;39.50;25.77;96772.91;5021607;28;20025;-79
2022/08/16 10:40:15;;;;;;;2.63;2.22;;;;;;;40.44;24.27;96776.69;5030162;28;20017;-85
2022/08/16 10:42:41;;;;;;;2.95;2.30;;;;;;;42.19;22.87;96744.75;5013295;28;20044;-85
2022/08/16 10:45:07;;;;;;;2.72;2.13;;;;;;;42.75;22.51;96767.63;5014113;28;20064;-80
2022/08/16 10:47:34;;;;;;;2.28;1.90;;;;;;;39.84;25.26;96764.38;5038046;28;20068;-82
2022/08/16 10:50:00;;;;;;;1.80;1.70;;;;;;;38.37;26.35;96750.97;5035131;28;20026;-84
2022/08/16 10:52:26;;;;;;;2.75;2.08;;;;;;;38.70;25.68;96749.31;5037187;28;20032;-84
2022/08/16 10:54:51;;;;;;;2.35;1.77;;;;;;;37.65;27.41;96738.53;5027584;28;20404;-84
2022/08/16 10:57:17;;;;;;;2.20;1.63;;;;;;;38.39;25.29;96746.75;5044095;28;20036;-82
2022/08/16 10:59:43;;;;;;;6.22;3.95;;;;;;;40.01;24.02;96740.28;5023160;28;20028;-83
2022/08/16 11:02:12;;;;;;;3.85;2.30;;;;;;;41.96;22.28;96732.63;5040642;28;20092;-84
2022/08/16 11:04:38;;;;;;;2.88;2.42;;;;;;;42.31;22.13;96747.84;5021843;28;20074;-84
2022/08/16 11:07:04;;;;;;;2.95;2.20;;;;;;;43.63;20.85;96754.56;5041979;28;20053;-83
2022/08/16 11:09:30;;;;;;;3.58;2.38;;;;;;;44.67;20.51;96757.28;5031158;28;20108;-83
2022/08/16 11:11:56;;;;;;;2.33;2.00;;;;;;;45.07;20.18;96759.94;5019191;28;20446;-83
2022/08/16 11:14:23;;;;;;;3.08;1.95;;;;;;;43.62;20.67;96765.03;5027360;28;20092;-79
2022/08/16 11:16:49;;;;;;;2.70;1.92;;;;;;;42.00;22.09;96754.13;5014691;28;20025;-79
2022/08/16 11:19:15;;;;;;;3.17;2.65;;;;;;;39.82;23.89;96750.66;5033307;28;20036;-78
2022/08/16 11:21:42;;;;;;;3.92;2.88;;;;;;;40.83;22.98;96753.88;5019563;28;20029;-79
2022/08/16 11:24:08;;;;;;;4.38;3.13;;;;;;;41.24;23.32;96749.22;5017106;28;20060;-78
2022/08/16 11:26:34;;;;;;;3.20;2.38;;;;;;;41.06;22.37;96745.38;5022564;28;20521;-79